Time;durP1;ratioP1;P1;durP2;ratioP2;P2;SDS_P1;SDS_P2;PMS_P1;PMS_P2;Temp;Humidity;BMP_temperature;BMP_pressure;BME280_temperature;BME280_humidity;BME280_pressure;Samples;Min_cycle;Max_cycle;Signal;HPM_P1;HPM_P2
2021/12/03 00:02:04;;;;;;;14.27;9.90;;;;;;;1.61;80.93;100200.31;5041377;28;20170;-68
2021/12/03 00:04:29;;;;;;;11.80;9.40;;;;;;;1.61;81.60;100202.00;5041540;28;20185;-69
2021/12/03 00:06:55;;;;;;;12.30;10.20;;;;;;;1.68;80.74;100191.16;5041640;28;20184;-70
2021/12/03 00:09:21;;;;;;;12.17;10.50;;;;;;;2.00;79.24;100173.41;5033530;28;20179;-70
2021/12/03 00:11:46;;;;;;;11.47;10.27;;;;;;;1.91;80.49;100180.78;5021391;28;20459;-71
2021/12/03 00:14:11;;;;;;;11.30;10.20;;;;;;;2.08;79.47;100173.69;5022215;28;20583;-68
2021/12/03 00:16:37;;;;;;;11.07;9.87;;;;;;;1.86;80.33;100167.78;5021491;28;20187;-69
2021/12/03 00:19:02;;;;;;;10.47;9.47;;;;;;;1.80;80.82;100177.84;5021443;28;20186;-70
2021/12/03 00:21:27;;;;;;;10.57;9.50;;;;;;;1.87;80.37;100174.69;5021656;28;20171;-69
2021/12/03 00:23:53;;;;;;;11.60;10.20;;;;;;;2.02;80.07;100182.06;5027958;28;20200;-71
2021/12/03 00:26:19;;;;;;;11.80;10.60;;;;;;;1.72;81.02;100184.41;5041676;28;20177;-69
2021/12/03 00:28:44;;;;;;;11.80;10.60;;;;;;;1.85;80.38;100189.16;5042091;28;20415;-68
2021/12/03 00:31:10;;;;;;;15.50;10.63;;;;;;;1.55;81.81;100188.94;5041121;28;20421;-68
2021/12/03 00:33:36;;;;;;;10.77;9.67;;;;;;;1.88;79.57;100193.53;5040781;28;20202;-69
2021/12/03 00:36:05;;;;;;;11.47;10.37;;;;;;;1.60;81.54;100192.56;5041556;28;20169;-69
2021/12/03 00:38:38;;;;;;;11.57;10.37;;;;;;;1.58;80.90;100195.03;5038161;28;20431;-70
2021/12/03 00:41:08;;;;;;;11.33;10.10;;;;;;;1.58;81.39;100207.03;5033547;28;20432;-69
2021/12/03 00:43:34;;;;;;;10.43;9.30;;;;;;;1.40;82.79;100209.78;5040789;28;20684;-69
2021/12/03 00:46:05;;;;;;;10.23;9.23;;;;;;;1.41;82.23;100211.50;5023803;28;20413;-69
2021/12/03 00:48:31;;;;;;;16.20;11.20;;;;;;;1.42;82.68;100214.16;5023363;28;20814;-69
2021/12/03 00:50:56;;;;;;;9.93;8.93;;;;;;;1.29;82.17;100211.94;5040656;28;20468;-68
2021/12/03 00:53:22;;;;;;;10.53;9.40;;;;;;;1.36;82.78;100203.66;5039429;28;20277;-69
2021/12/03 00:55:47;;;;;;;11.63;9.13;;;;;;;1.42;82.59;100210.69;5039066;28;20213;-69
2021/12/03 00:58:12;;;;;;;8.87;7.53;;;;;;;1.61;82.45;100210.59;5021040;28;20175;-69
2021/12/03 01:00:38;;;;;;;8.63;7.17;;;;;;;1.40;84.61;100210.66;5021300;28;20478;-68
2021/12/03 01:03:03;;;;;;;7.93;7.13;;;;;;;1.53;84.98;100209.44;5020710;28;20207;-68
2021/12/03 01:05:29;;;;;;;12.20;7.90;;;;;;;1.59;84.55;100212.22;5003463;28;20171;-68
2021/12/03 01:07:55;;;;;;;12.50;7.70;;;;;;;1.91;83.24;100204.81;5021245;28;20192;-68
2021/12/03 01:10:22;;;;;;;7.67;6.50;;;;;;;1.45;84.59;100210.84;5004592;28;20190;-68
2021/12/03 01:12:47;;;;;;;9.97;6.83;;;;;;;1.47;84.07;100204.06;5036848;28;20432;-68
2021/12/03 01:15:16;;;;;;;8.83;6.70;;;;;;;1.63;84.08;100213.22;5049729;28;20425;-69
2021/12/03 01:17:42;;;;;;;7.17;6.47;;;;;;;1.74;83.72;100219.63;5046776;28;20261;-69
2021/12/03 01:20:09;;;;;;;8.77;6.20;;;;;;;1.67;83.16;100218.50;5040757;28;20456;-68
2021/12/03 01:22:35;;;;;;;10.57;6.50;;;;;;;1.38;83.78;100221.69;5040789;28;20189;-69
2021/12/03 01:25:01;;;;;;;8.77;7.10;;;;;;;1.54;83.84;100221.44;5040540;28;20428;-68
2021/12/03 01:27:26;;;;;;;8.20;7.10;;;;;;;1.23;83.21;100212.59;5040365;28;20421;-69
2021/12/03 01:29:53;;;;;;;12.77;8.00;;;;;;;1.18;83.74;100222.66;5030833;28;20201;-68
2021/12/03 01:32:19;;;;;;;14.33;7.73;;;;;;;1.12;84.19;100229.25;5020280;28;20214;-69
2021/12/03 01:34:44;;;;;;;9.37;7.87;;;;;;;1.20;84.14;100230.41;5020195;28;20500;-68
2021/12/03 01:37:09;;;;;;;11.83;9.17;;;;;;;1.02;84.56;100232.28;5020662;28;20238;-69
2021/12/03 01:39:35;;;;;;;11.80;10.30;;;;;;;1.02;84.39;100242.56;5031965;28;20205;-71
2021/12/03 01:42:00;;;;;;;11.53;9.07;;;;;;;1.23;83.14;100232.22;5039978;28;20245;-71
2021/12/03 01:44:26;;;;;;;10.83;9.70;;;;;;;1.16;83.01;100236.25;5040299;28;20154;-69
2021/12/03 01:46:51;;;;;;;11.10;9.90;;;;;;;1.12;84.20;100235.28;5026683;28;20183;-68
2021/12/03 01:49:16;;;;;;;11.00;9.40;;;;;;;0.79;84.64;100237.34;5003155;28;20167;-68
2021/12/03 01:51:43;;;;;;;15.10;11.67;;;;;;;1.33;83.89;100242.94;5003348;28;20171;-68
2021/12/03 01:54:08;;;;;;;12.27;10.40;;;;;;;1.41;82.54;100243.22;5019723;28;20297;-70
2021/12/03 01:56:34;;;;;;;11.70;10.23;;;;;;;1.09;83.67;100234.28;5019739;28;20465;-69
2021/12/03 01:58:59;;;;;;;13.03;9.87;;;;;;;0.92;84.69;100237.03;5020169;28;20721;-69
2021/12/03 02:01:26;;;;;;;12.20;10.10;;;;;;;0.98;84.29;100236.41;5038311;28;20605;-70
2021/12/03 02:03:53;;;;;;;11.77;10.47;;;;;;;0.96;84.93;100238.91;5039593;28;20197;-69
2021/12/03 02:06:20;;;;;;;13.63;10.90;;;;;;;1.20;84.36;100238.13;5039261;28;20492;-70
2021/12/03 02:08:46;;;;;;;11.93;10.67;;;;;;;1.08;84.20;100235.06;5039210;28;20417;-69
2021/12/03 02:11:12;;;;;;;11.77;10.03;;;;;;;1.04;84.82;100230.63;5039302;28;20697;-70
2021/12/03 02:13:37;;;;;;;14.70;11.13;;;;;;;1.33;83.32;100231.78;5038196;28;20192;-68
2021/12/03 02:16:04;;;;;;;12.60;11.30;;;;;;;1.45;82.69;100232.25;5038720;28;20515;-70
2021/12/03 02:18:29;;;;;;;12.10;10.90;;;;;;;1.40;83.27;100232.91;5039150;28;20170;-69
2021/12/03 02:20:58;;;;;;;14.43;11.17;;;;;;;1.22;83.04;100230.47;5039260;28;20416;-68
2021/12/03 02:23:24;;;;;;;14.17;11.50;;;;;;;1.25;83.35;100235.75;5021830;28;20166;-69
2021/12/03 02:25:50;;;;;;;15.00;12.77;;;;;;;1.43;82.61;100230.44;5039072;28;20417;-69
2021/12/03 02:28:17;;;;;;;16.30;13.03;;;;;;;1.17;83.46;100235.44;5037495;28;20417;-70
2021/12/03 02:30:44;;;;;;;17.33;12.40;;;;;;;1.17;84.23;100227.75;5019437;28;20421;-70
2021/12/03 02:33:10;;;;;;;14.13;12.63;;;;;;;1.47;83.01;100227.16;5018999;28;20726;-69
2021/12/03 02:35:37;;;;;;;13.10;11.80;;;;;;;1.36;83.05;100233.59;5031853;28;20425;-68
2021/12/03 02:38:03;;;;;;;14.07;12.03;;;;;;;1.50;82.58;100232.41;5022198;28;20415;-70
2021/12/03 02:40:28;;;;;;;13.63;11.67;;;;;;;1.53;83.08;100240.25;5020092;28;20418;-70
2021/12/03 02:42:54;;;;;;;11.93;10.73;;;;;;;1.51;83.38;100244.44;5026860;28;20182;-68
2021/12/03 02:45:20;;;;;;;13.33;11.80;;;;;;;1.71;81.95;100249.47;5021365;28;20166;-68
2021/12/03 02:47:46;;;;;;;15.97;11.77;;;;;;;1.57;83.53;100277.19;5021275;28;20181;-68
2021/12/03 02:50:12;;;;;;;14.17;10.33;;;;;;;1.73;82.44;100270.97;5039394;28;20422;-68
2021/12/03 02:52:38;;;;;;;17.63;13.93;;;;;;;1.44;82.92;100284.44;5038547;28;20473;-70
2021/12/03 02:55:04;;;;;;;18.23;14.30;;;;;;;1.93;81.97;100290.56;5038313;28;20464;-69
2021/12/03 02:57:30;;;;;;;18.10;11.77;;;;;;;1.93;82.35;100280.28;5026836;28;20181;-68
2021/12/03 02:59:57;;;;;;;11.60;10.50;;;;;;;1.87;82.98;100280.06;5019766;28;20445;-69
2021/12/03 03:02:22;;;;;;;15.33;11.73;;;;;;;1.93;82.41;100267.44;5024703;28;20437;-68
2021/12/03 03:04:48;;;;;;;14.73;11.73;;;;;;;2.19;81.17;100267.50;5038316;28;20185;-68
2021/12/03 03:07:13;;;;;;;10.50;9.43;;;;;;;8.78;92.90;100226.13;5036709;28;20453;-57
2021/12/03 03:09:43;;;;;;;9.43;8.47;;;;;;;9.72;87.36;100224.16;5038390;28;20264;-60
2021/12/03 03:12:09;;;;;;;11.37;9.50;;;;;;;4.49;71.70;100247.97;5038417;28;20167;-68
2021/12/03 03:14:35;;;;;;;11.53;10.27;;;;;;;3.02;75.75;100234.28;5037972;28;20435;-68
2021/12/03 03:17:01;;;;;;;10.30;9.30;;;;;;;2.56;78.08;100261.09;5037323;28;20436;-70
2021/12/03 03:19:26;;;;;;;10.90;9.80;;;;;;;1.84;80.54;100262.84;5036120;28;20536;-68
2021/12/03 03:21:54;;;;;;;10.43;9.43;;;;;;;1.82;81.32;100258.47;5018137;28;20198;-68
2021/12/03 03:24:21;;;;;;;10.80;9.80;;;;;;;1.55;81.50;100248.03;5018254;28;20175;-69
2021/12/03 03:26:49;;;;;;;11.37;10.17;;;;;;;1.60;82.35;100249.94;5019048;28;20681;-69
2021/12/03 03:29:16;;;;;;;11.83;10.73;;;;;;;1.91;81.34;100261.38;5018551;28;20435;-68
2021/12/03 03:31:49;;;;;;;13.30;10.40;;;;;;;1.59;82.19;100252.47;5018147;28;20500;-70
2021/12/03 03:34:14;;;;;;;13.20;11.30;;;;;;;1.74;82.04;100245.31;5014661;28;20464;-70
2021/12/03 03:36:44;;;;;;;12.30;11.10;;;;;;;1.60;81.95;100243.94;5038201;28;20428;-71
2021/12/03 03:39:12;;;;;;;11.10;10.03;;;;;;;1.57;82.09;100239.56;5038790;28;20185;-72
2021/12/03 03:41:38;;;;;;;11.23;9.63;;;;;;;1.95;81.02;100249.50;5038623;28;20480;-71
2021/12/03 03:44:04;;;;;;;11.60;10.40;;;;;;;1.91;80.81;100250.19;5042182;28;20478;-71
2021/12/03 03:46:29;;;;;;;11.60;10.40;;;;;;;1.88;80.74;100253.56;5041583;28;20510;-72
2021/12/03 03:48:55;;;;;;;13.00;11.70;;;;;;;1.72;81.58;100249.53;5027165;28;20492;-70
2021/12/03 03:51:21;;;;;;;14.73;11.00;;;;;;;1.94;80.72;100256.34;5002302;28;20226;-70
2021/12/03 03:53:46;;;;;;;12.80;11.47;;;;;;;1.90;80.26;100258.75;5011727;28;20472;-71
2021/12/03 03:56:11;;;;;;;11.97;10.87;;;;;;;1.49;81.28;100253.81;5040421;28;20221;-70
2021/12/03 03:58:38;;;;;;;12.60;11.30;;;;;;;1.48;80.99;100254.63;5040178;28;20178;-69
2021/12/03 04:01:06;;;;;;;12.47;11.23;;;;;;;1.29;82.05;100264.16;5039292;28;20204;-71
2021/12/03 04:03:32;;;;;;;12.00;10.80;;;;;;;1.40;82.35;100253.44;5038243;28;20405;-68
2021/12/03 04:05:58;;;;;;;13.77;10.10;;;;;;;1.47;81.87;100253.72;5038790;28;20810;-70
2021/12/03 04:08:24;;;;;;;10.60;9.60;;;;;;;1.26;82.35;100251.22;5037742;28;20719;-70
2021/12/03 04:10:49;;;;;;;13.53;11.30;;;;;;;1.55;81.16;100235.19;5038153;28;20495;-70
2021/12/03 04:13:15;;;;;;;12.53;11.20;;;;;;;1.75;79.91;100230.78;5037789;28;20205;-68
2021/12/03 04:15:42;;;;;;;14.10;11.67;;;;;;;1.78;80.14;100224.03;5047770;28;20412;-70
2021/12/03 04:18:08;;;;;;;12.43;10.80;;;;;;;1.99;79.25;100234.25;5057490;28;20188;-69
2021/12/03 04:20:33;;;;;;;14.07;10.83;;;;;;;1.78;80.46;100239.47;5058250;28;20416;-69
2021/12/03 04:22:59;;;;;;;16.33;11.33;;;;;;;1.83;80.03;100234.50;5057330;28;20754;-70
2021/12/03 04:25:24;;;;;;;12.00;10.70;;;;;;;1.33;81.91;100235.22;5057609;28;20487;-69
2021/12/03 04:27:50;;;;;;;14.67;12.50;;;;;;;1.70;80.83;100229.75;5058408;28;20165;-67
2021/12/03 04:30:20;;;;;;;15.67;11.70;;;;;;;1.77;79.69;100229.13;5045664;28;20259;-67
2021/12/03 04:32:45;;;;;;;15.27;13.67;;;;;;;1.81;80.46;100213.91;5040949;28;20444;-67
2021/12/03 04:35:11;;;;;;;12.50;11.20;;;;;;;1.88;78.98;100217.56;5041327;28;20502;-68
2021/12/03 04:37:37;;;;;;;12.37;11.17;;;;;;;1.70;80.34;100222.03;5041232;28;20178;-69
2021/12/03 04:40:04;;;;;;;12.03;10.83;;;;;;;1.61;81.06;100219.97;5055627;28;20181;-71
2021/12/03 04:42:30;;;;;;;12.00;10.80;;;;;;;1.52;81.80;100225.66;5060911;28;20455;-70
2021/12/03 04:44:55;;;;;;;14.73;11.30;;;;;;;1.70;79.88;100229.75;5060211;28;20470;-69
2021/12/03 04:47:20;;;;;;;12.87;11.57;;;;;;;1.43;81.27;100233.88;5060706;28;20272;-69
2021/12/03 04:49:46;;;;;;;16.03;12.20;;;;;;;1.45;80.66;100229.69;5061049;28;20181;-70
2021/12/03 04:52:11;;;;;;;12.80;11.50;;;;;;;1.36;81.29;100238.75;5060603;28;20448;-70
2021/12/03 04:54:36;;;;;;;11.83;10.63;;;;;;;1.45;80.89;100232.25;5050227;28;20626;-71
2021/12/03 04:57:02;;;;;;;11.97;10.77;;;;;;;1.53;80.19;100235.13;5038569;28;20178;-72
2021/12/03 04:59:27;;;;;;;12.73;10.60;;;;;;;1.54;81.27;100223.13;5029321;28;20305;-70
2021/12/03 05:01:56;;;;;;;12.67;11.47;;;;;;;1.88;78.80;100222.72;5022273;28;20658;-69
2021/12/03 05:04:21;;;;;;;13.53;11.13;;;;;;;1.81;79.43;100233.56;5024234;28;20174;-70
2021/12/03 05:07:05;;;;;;;12.20;11.00;;;;;;;1.75;79.42;100230.78;5021681;28;20437;-69
2021/12/03 05:09:30;;;;;;;11.50;10.40;;;;;;;1.79;79.65;100235.22;5034513;28;20186;-69
2021/12/03 05:11:56;;;;;;;14.63;12.17;;;;;;;2.10;77.73;100231.19;5031924;28;20657;-67
2021/12/03 05:14:21;;;;;;;15.83;12.73;;;;;;;1.94;78.14;100220.34;5040283;28;20218;-69
2021/12/03 05:16:48;;;;;;;13.90;11.17;;;;;;;1.97;78.33;100225.59;5036386;28;20185;-68
2021/12/03 05:19:15;;;;;;;11.70;10.50;;;;;;;1.60;79.43;100215.69;5021750;28;20250;-70
2021/12/03 05:21:41;;;;;;;12.63;11.33;;;;;;;1.95;79.26;100219.53;5021501;28;20436;-68
2021/12/03 05:24:07;;;;;;;12.83;11.37;;;;;;;1.82;79.21;100220.78;5037770;28;20432;-68
2021/12/03 05:26:32;;;;;;;14.40;11.03;;;;;;;1.88;79.13;100227.84;5025833;28;20209;-69
2021/12/03 05:28:58;;;;;;;13.30;11.90;;;;;;;1.85;79.16;100218.34;5021640;28;20175;-69
2021/12/03 05:31:23;;;;;;;13.13;11.83;;;;;;;1.94;78.56;100219.47;5030031;28;20189;-65
2021/12/03 05:33:48;;;;;;;12.77;11.47;;;;;;;1.67;79.34;100231.34;5030174;28;20199;-65
2021/12/03 05:36:14;;;;;;;13.73;12.00;;;;;;;2.02;77.93;100226.63;5034266;28;20266;-65
2021/12/03 05:38:40;;;;;;;12.97;11.77;;;;;;;1.65;79.93;100224.41;5026019;28;20276;-64
2021/12/03 05:41:05;;;;;;;13.23;11.60;;;;;;;1.71;79.84;100234.94;5024759;28;20570;-65
2021/12/03 05:43:30;;;;;;;13.30;12.00;;;;;;;1.71;80.12;100232.34;5022426;28;20507;-65
2021/12/03 05:45:56;;;;;;;13.20;11.93;;;;;;;1.71;80.12;100226.34;5035649;28;20229;-65
2021/12/03 05:48:21;;;;;;;14.50;13.10;;;;;;;1.82;80.28;100231.06;5019153;28;20268;-66
2021/12/03 05:50:47;;;;;;;14.77;13.20;;;;;;;1.74;80.52;100231.59;5024423;28;20186;-66
2021/12/03 05:53:13;;;;;;;14.50;13.10;;;;;;;1.67;81.07;100226.22;5022462;28;20207;-65
2021/12/03 05:55:38;;;;;;;12.73;11.43;;;;;;;1.68;80.75;100234.81;5005020;28;20429;-66
2021/12/03 05:58:03;;;;;;;13.73;12.33;;;;;;;1.75;80.56;100235.94;5015660;28;20179;-66
2021/12/03 06:00:32;;;;;;;14.23;12.73;;;;;;;1.70;81.09;100237.44;5003525;28;20513;-69
2021/12/03 06:02:59;;;;;;;19.60;13.50;;;;;;;1.79;81.10;100236.09;5019389;28;20217;-68
2021/12/03 06:05:28;;;;;;;13.27;12.07;;;;;;;1.51;81.59;100229.03;5019613;28;20444;-68
2021/12/03 06:07:54;;;;;;;13.87;12.40;;;;;;;1.61;81.45;100230.25;5019397;28;20505;-68
2021/12/03 06:10:19;;;;;;;13.77;12.37;;;;;;;1.87;80.67;100241.50;5019674;28;20506;-68
2021/12/03 06:12:46;;;;;;;14.63;13.23;;;;;;;1.67;81.05;100235.63;5002053;28;20217;-69
2021/12/03 06:15:12;;;;;;;14.57;13.17;;;;;;;1.84;80.69;100229.44;5019696;28;20203;-69
2021/12/03 06:17:37;;;;;;;16.43;13.30;;;;;;;2.06;79.83;100227.63;5019984;28;20483;-69
2021/12/03 06:20:04;;;;;;;16.90;13.63;;;;;;;1.68;80.24;100227.97;5019424;28;20413;-68
2021/12/03 06:22:30;;;;;;;14.53;13.10;;;;;;;1.59;80.61;100225.06;5002041;28;20441;-68
2021/12/03 06:24:56;;;;;;;14.70;13.23;;;;;;;1.79;80.18;100223.22;5020145;28;20481;-70
2021/12/03 06:27:21;;;;;;;14.83;13.43;;;;;;;1.70;81.00;100222.03;5026013;28;20185;-68
2021/12/03 06:29:47;;;;;;;14.30;13.00;;;;;;;2.00;80.46;100220.59;5026478;28;20418;-70
2021/12/03 06:32:12;;;;;;;14.50;13.00;;;;;;;1.37;81.71;100231.09;5025717;28;20178;-69
2021/12/03 06:34:38;;;;;;;15.40;13.87;;;;;;;1.75;81.17;100230.78;5020187;28;20210;-70
2021/12/03 06:37:03;;;;;;;15.57;13.97;;;;;;;2.13;80.02;100236.44;5019588;28;20199;-70
2021/12/03 06:39:29;;;;;;;14.60;13.17;;;;;;;1.88;80.91;100229.53;5032757;28;20193;-73
2021/12/03 06:41:54;;;;;;;13.63;12.27;;;;;;;1.98;80.40;100227.34;5040637;28;20535;-70
2021/12/03 06:44:19;;;;;;;14.50;13.10;;;;;;;1.95;80.72;100237.53;5042642;28;20174;-72
2021/12/03 06:46:45;;;;;;;15.03;13.63;;;;;;;2.14;79.67;100230.50;5039810;28;20212;-69
2021/12/03 06:49:10;;;;;;;13.93;12.63;;;;;;;1.81;80.52;100231.00;5038551;28;20436;-69
2021/12/03 06:51:42;;;;;;;15.70;14.10;;;;;;;1.82;80.42;100240.47;5038246;28;20265;-69
2021/12/03 06:54:09;;;;;;;15.30;13.70;;;;;;;1.84;81.22;100232.00;5038404;28;20491;-69
2021/12/03 06:59:29;;;;;;;14.23;12.93;;;;;;;1.92;80.29;100232.28;5025558;28;20425;-71
2021/12/03 07:01:55;;;;;;;15.73;14.27;;;;;;;1.86;80.34;100234.63;5025664;28;20702;-69
2021/12/03 07:04:21;;;;;;;16.30;14.57;;;;;;;2.04;80.13;100241.25;5037176;28;20701;-70
2021/12/03 07:06:47;;;;;;;17.13;13.00;;;;;;;1.74;80.58;100236.75;5038768;28;20178;-71
2021/12/03 07:09:13;;;;;;;21.47;13.53;;;;;;;1.75;81.50;100233.38;5038247;28;20455;-73
2021/12/03 07:11:38;;;;;;;15.73;14.20;;;;;;;1.94;80.40;100245.19;5037908;28;20269;-71
2021/12/03 07:14:04;;;;;;;14.60;13.20;;;;;;;2.13;79.23;100236.44;5038589;28;20437;-69
2021/12/03 07:16:30;;;;;;;15.40;13.90;;;;;;;1.90;79.83;100244.19;5038017;28;20243;-69
2021/12/03 07:18:55;;;;;;;15.77;14.27;;;;;;;1.99;79.41;100248.81;5037959;28;20525;-68
2021/12/03 07:21:21;;;;;;;15.23;13.73;;;;;;;1.91;79.74;100251.09;5038362;28;20177;-69
2021/12/03 07:23:49;;;;;;;20.30;14.40;;;;;;;2.00;79.50;100241.16;5038129;28;20476;-70
2021/12/03 07:26:15;;;;;;;15.73;14.17;;;;;;;1.89;79.61;100250.16;5037818;28;20511;-70
2021/12/03 07:28:41;;;;;;;18.00;14.27;;;;;;;1.81;80.10;100241.28;5038412;28;20854;-68
2021/12/03 07:31:06;;;;;;;15.27;13.23;;;;;;;2.03;79.25;100235.25;5037813;28;20170;-69
2021/12/03 07:33:32;;;;;;;14.90;13.37;;;;;;;1.90;80.60;100246.75;5037728;28;20204;-70
2021/12/03 07:35:58;;;;;;;17.17;13.50;;;;;;;1.86;79.44;100252.63;5020896;28;20170;-69
2021/12/03 07:38:23;;;;;;;15.70;14.10;;;;;;;1.81;80.69;100243.84;5037878;28;20257;-67
2021/12/03 07:40:49;;;;;;;17.07;15.23;;;;;;;1.85;80.05;100243.13;5037881;28;20405;-67
2021/12/03 07:43:16;;;;;;;16.07;14.37;;;;;;;1.80;80.04;100242.09;5038425;28;20197;-68
2021/12/03 07:45:42;;;;;;;16.40;14.70;;;;;;;1.80;80.41;100242.09;5037831;28;20419;-69
2021/12/03 07:48:08;;;;;;;16.63;13.63;;;;;;;1.52;80.91;100243.63;5037804;28;20505;-69
2021/12/03 07:50:35;;;;;;;14.47;12.40;;;;;;;1.62;80.94;100243.16;5038584;28;20437;-68
2021/12/03 07:53:02;;;;;;;18.93;14.33;;;;;;;1.87;80.17;100238.06;5037590;28;20175;-68
2021/12/03 07:55:27;;;;;;;15.53;13.87;;;;;;;1.83;80.15;100243.09;5037787;28;20696;-68
2021/12/03 07:57:55;;;;;;;14.87;13.50;;;;;;;2.10;80.22;100242.34;5038075;28;20424;-68
2021/12/03 08:00:20;;;;;;;15.43;13.67;;;;;;;2.25;78.91;100241.16;5037933;28;20174;-68
2021/12/03 08:02:46;;;;;;;14.50;13.10;;;;;;;2.04;78.78;100238.69;5038308;28;20431;-68
2021/12/03 08:05:11;;;;;;;13.90;12.60;;;;;;;2.08;79.18;100241.41;5041855;28;20191;-68
2021/12/03 08:07:40;;;;;;;13.60;12.20;;;;;;;1.78;79.46;100243.75;5024459;28;20190;-68
2021/12/03 08:10:06;;;;;;;15.23;12.17;;;;;;;2.09;78.39;100240.59;5041601;28;20220;-68
2021/12/03 08:12:32;;;;;;;19.50;13.37;;;;;;;2.45;77.50;100242.72;5041863;28;20893;-70
2021/12/03 08:14:57;;;;;;;16.27;14.57;;;;;;;2.29;78.08;100243.00;5024155;28;20471;-68
2021/12/03 08:17:23;;;;;;;17.03;14.57;;;;;;;3.01;76.32;100242.84;5041600;28;20244;-67
2021/12/03 08:19:48;;;;;;;12.83;11.60;;;;;;;3.70;72.03;100235.47;5024771;28;20183;-68
2021/12/03 08:22:13;;;;;;;13.27;11.57;;;;;;;3.67;72.34;100244.00;5041535;28;20220;-68
2021/12/03 08:24:39;;;;;;;12.40;11.30;;;;;;;3.90;70.89;100241.22;5041662;28;20174;-68
2021/12/03 08:27:04;;;;;;;14.47;11.33;;;;;;;3.89;70.21;100247.19;5042581;28;20257;-68
2021/12/03 08:29:30;;;;;;;10.80;9.80;;;;;;;4.09;70.42;100246.91;5041970;28;20182;-68
2021/12/03 08:31:55;;;;;;;12.00;10.80;;;;;;;3.54;70.51;100250.50;5040931;28;20174;-67
2021/12/03 08:34:20;;;;;;;13.10;11.70;;;;;;;3.35;71.61;100263.63;5041412;28;20201;-68
2021/12/03 08:36:46;;;;;;;13.37;12.00;;;;;;;3.81;70.85;100257.28;5040847;28;20186;-67
2021/12/03 08:39:11;;;;;;;12.57;11.37;;;;;;;4.55;68.08;100248.16;5040818;28;20189;-70
2021/12/03 08:41:36;;;;;;;12.57;11.27;;;;;;;4.91;67.26;100249.88;5041092;28;20225;-70
2021/12/03 08:44:03;;;;;;;12.43;11.33;;;;;;;5.43;65.81;100246.81;5023647;28;20185;-71
2021/12/03 08:46:32;;;;;;;13.13;11.77;;;;;;;4.87;65.95;100255.81;5041004;28;20171;-69
2021/12/03 08:49:06;;;;;;;12.63;11.33;;;;;;;4.97;66.23;100250.06;5041265;28;20409;-69
2021/12/03 08:51:48;;;;;;;13.50;12.10;;;;;;;4.98;65.16;100249.22;5040546;28;20392;-65
2021/12/03 08:56:57;;;;;;;35.77;26.87;;;;;;;4.85;66.59;100249.75;5040566;28;20428;-66
2021/12/03 08:59:23;;;;;;;14.43;13.13;;;;;;;4.83;66.87;100254.88;5040746;28;20417;-65
2021/12/03 09:01:48;;;;;;;14.67;13.17;;;;;;;4.85;66.46;100245.44;5045387;28;20417;-65
2021/12/03 09:04:14;;;;;;;14.13;11.97;;;;;;;4.83;65.83;100254.00;5049144;28;20189;-67
2021/12/03 09:06:40;;;;;;;14.57;13.23;;;;;;;5.31;63.69;100244.81;5048295;28;20224;-65
2021/12/03 09:09:07;;;;;;;14.60;13.20;;;;;;;5.77;63.02;100250.13;5042510;28;20453;-64
2021/12/03 09:11:37;;;;;;;15.73;14.33;;;;;;;4.68;66.24;100254.47;5023341;28;20492;-65
2021/12/03 09:14:10;;;;;;;16.83;15.10;;;;;;;4.22;67.29;100261.88;5040289;28;20458;-69
2021/12/03 09:16:35;;;;;;;16.50;14.90;;;;;;;4.79;66.49;100259.91;5040001;28;20838;-70
2021/12/03 09:19:02;;;;;;;16.37;14.67;;;;;;;5.23;64.90;100253.25;5040249;28;20466;-70
2021/12/03 09:21:30;;;;;;;15.20;13.80;;;;;;;5.19;65.24;100250.56;5040463;28;20432;-70
2021/12/03 09:24:14;;;;;;;17.30;15.60;;;;;;;4.93;66.06;100253.41;5039923;28;20436;-70
2021/12/03 09:26:41;;;;;;;16.60;14.97;;;;;;;4.92;66.70;100256.81;5025452;28;20402;-70
2021/12/03 09:29:10;;;;;;;18.00;15.97;;;;;;;4.66;66.27;100251.88;5023259;28;20407;-69
2021/12/03 09:31:37;;;;;;;17.80;16.07;;;;;;;3.79;70.04;100245.19;5039769;28;20452;-67
2021/12/03 09:34:07;;;;;;;20.00;17.87;;;;;;;4.57;67.95;100241.28;5040219;28;20543;-67
2021/12/03 09:36:33;;;;;;;18.33;16.40;;;;;;;4.14;68.75;100245.31;5039766;28;20467;-66
2021/12/03 09:38:59;;;;;;;19.87;17.60;;;;;;;4.21;69.11;100244.66;5041084;28;20425;-67
2021/12/03 09:41:25;;;;;;;20.20;16.83;;;;;;;3.60;70.88;100244.66;5043230;28;20459;-68
2021/12/03 09:43:52;;;;;;;19.67;16.00;;;;;;;3.55;71.71;100256.53;5042251;28;20413;-69
2021/12/03 09:51:20;;;;;;;19.57;17.53;;;;;;;3.95;70.84;100237.06;5039797;28;20384;-67
2021/12/03 09:56:33;;;;;;;22.97;18.40;;;;;;;3.95;71.68;100233.59;5039752;28;20423;-69
2021/12/03 10:01:47;;;;;;;23.30;17.87;;;;;;;3.39;73.48;100232.00;5024842;28;20513;-69
2021/12/03 10:12:39;;;;;;;22.00;17.00;;;;;;;3.31;73.84;100231.75;5039057;28;20525;-67
2021/12/03 10:15:11;;;;;;;23.50;17.03;;;;;;;3.47;73.21;100233.09;5038996;28;20456;-67
2021/12/03 10:20:29;;;;;;;22.60;17.90;;;;;;;2.67;76.48;100218.56;5039166;28;20471;-68
2021/12/03 10:26:37;;;;;;;23.10;18.43;;;;;;;2.95;76.78;100210.88;5038807;28;20428;-69
2021/12/03 10:32:10;;;;;;;25.93;18.80;;;;;;;2.97;76.68;100214.38;5037706;28;20473;-68
2021/12/03 10:39:48;;;;;;;21.47;16.10;;;;;;;7.93;72.08;100171.59;5038641;28;20429;-58
2021/12/03 10:42:36;;;;;;;21.73;18.13;;;;;;;4.16;71.39;100184.31;5038250;28;20390;-66
2021/12/03 10:48:10;;;;;;;24.40;19.30;;;;;;;2.97;75.98;100184.34;5021971;28;20427;-64
2021/12/03 10:53:27;;;;;;;26.50;18.80;;;;;;;3.35;75.88;100176.03;5038002;28;20415;-64
2021/12/03 11:28:34;;;;;;;27.37;20.37;;;;;;;3.65;75.98;100134.84;5036067;28;20846;-67
2021/12/03 12:04:12;;;;;;;33.70;19.83;;;;;;;3.29;77.16;100099.44;5058429;28;20527;-66
2021/12/03 12:15:34;;;;;;;34.77;21.57;;;;;;;3.46;77.20;100086.16;5058170;28;20506;-68
2021/12/03 12:47:20;;;;;;;31.40;20.60;;;;;;;3.54;76.95;100023.72;5061045;28;20431;-72
2021/12/03 13:12:43;;;;;;;30.90;19.27;;;;;;;4.19;73.34;100003.81;5021747;28;20442;-70
2021/12/03 13:18:14;;;;;;;27.93;18.70;;;;;;;4.18;73.90;99982.31;5020649;28;20426;-72
2021/12/03 13:56:04;;;;;;;29.67;18.67;;;;;;;4.45;71.22;99967.41;5037976;28;20428;-69
2021/12/03 14:02:45;;;;;;;33.50;20.23;;;;;;;4.11;70.33;99946.88;5038715;28;20832;-69
2021/12/03 14:18:10;;;;;;;34.67;19.83;;;;;;;3.87;71.84;99926.56;5030245;28;20429;-69
2021/12/03 14:38:29;;;;;;;24.40;16.73;;;;;;;3.61;76.21;99885.53;5019253;28;20693;-70
2021/12/03 14:41:16;;;;;;;26.70;17.37;;;;;;;3.72;76.07;99880.63;5035041;28;20498;-68
2021/12/03 14:44:02;;;;;;;25.20;17.47;;;;;;;3.66;76.27;99881.38;5019259;28;20437;-68
2021/12/03 14:46:50;;;;;;;23.10;16.70;;;;;;;3.53;77.38;99871.59;5008209;28;20444;-69
2021/12/03 14:51:56;;;;;;;25.60;18.23;;;;;;;3.56;77.79;99875.97;5023428;28;20433;-68
2021/12/03 14:57:35;;;;;;;25.37;18.07;;;;;;;3.73;77.65;99853.19;5030899;28;20436;-68
2021/12/03 15:00:21;;;;;;;28.80;17.43;;;;;;;3.41;79.11;99855.84;5038458;28;20511;-69
2021/12/03 15:08:53;;;;;;;23.83;16.70;;;;;;;3.29;80.09;99854.72;5038550;28;20479;-69
2021/12/03 15:11:55;;;;;;;23.73;18.07;;;;;;;3.13;81.12;99844.88;5038228;28;20662;-68
2021/12/03 15:24:43;;;;;;;21.73;17.20;;;;;;;3.54;80.86;99833.00;5037755;28;20170;-68
2021/12/03 16:04:56;;;;;;;19.13;14.90;;;;;;;3.38;81.54;99792.22;5027487;28;20413;-70
2021/12/03 16:16:29;;;;;;;16.10;14.07;;;;;;;3.14;82.93;99764.19;5015862;28;20472;-68
2021/12/03 16:18:54;;;;;;;17.13;12.90;;;;;;;3.09;82.76;99755.50;5012881;28;20418;-69
2021/12/03 16:21:41;;;;;;;17.77;13.97;;;;;;;3.48;82.12;99760.69;5029853;28;20428;-67
2021/12/03 16:24:30;;;;;;;17.30;13.50;;;;;;;3.14;82.78;99765.06;5057721;28;20420;-71
2021/12/03 16:46:27;;;;;;;19.50;13.40;;;;;;;3.45;83.66;99744.28;5060650;28;20438;-72
2021/12/03 16:53:51;;;;;;;20.40;14.90;;;;;;;3.06;85.00;99730.56;5065580;28;20518;-71
2021/12/03 16:56:22;;;;;;;17.90;14.33;;;;;;;3.12;84.72;99734.97;5064425;28;20396;-71
2021/12/03 16:58:47;;;;;;;18.37;15.47;;;;;;;3.32;83.78;99744.03;5045320;28;20428;-71